sensor_id;sensor_type;location;lat;lon;timestamp;pressure;altitude;pressure_sealevel;temperature;humidity
41264;BME280;26998;48.714;9.414;2023-02-20T00:01:16;100328.47;;;7.45;100.00
41264;BME280;26998;48.714;9.414;2023-02-20T00:03:44;100321.47;;;7.44;100.00
41264;BME280;26998;48.714;9.414;2023-02-20T00:06:12;100327.34;;;7.47;100.00
41264;BME280;26998;48.714;9.414;2023-02-20T00:08:39;100321.88;;;7.49;100.00
41264;BME280;26998;48.714;9.414;2023-02-20T00:11:05;100311.97;;;7.51;100.00
41264;BME280;26998;48.714;9.414;2023-02-20T00:13:32;100310.69;;;7.55;100.00
41264;BME280;26998;48.714;9.414;2023-02-20T00:15:59;100303.25;;;7.58;100.00
41264;BME280;26998;48.714;9.414;2023-02-20T00:18:25;100298.22;;;7.55;100.00
41264;BME280;26998;48.714;9.414;2023-02-20T00:20:52;100304.66;;;7.53;100.00
41264;BME280;26998;48.714;9.414;2023-02-20T00:23:18;100310.13;;;7.51;100.00
41264;BME280;26998;48.714;9.414;2023-02-20T00:25:45;100306.63;;;7.51;100.00
41264;BME280;26998;48.714;9.414;2023-02-20T00:28:12;100304.81;;;7.51;100.00
41264;BME280;26998;48.714;9.414;2023-02-20T00:30:38;100300.31;;;7.52;100.00
41264;BME280;26998;48.714;9.414;2023-02-20T00:33:05;100301.59;;;7.48;100.00
41264;BME280;26998;48.714;9.414;2023-02-20T00:35:31;100309.16;;;7.43;100.00
41264;BME280;26998;48.714;9.414;2023-02-20T00:37:58;100321.06;;;7.38;100.00
41264;BME280;26998;48.714;9.414;2023-02-20T00:40:25;100331.84;;;7.37;100.00
41264;BME280;26998;48.714;9.414;2023-02-20T00:42:52;100330.16;;;7.36;100.00
41264;BME280;26998;48.714;9.414;2023-02-20T00:45:18;100344.72;;;7.42;100.00
41264;BME280;26998;48.714;9.414;2023-02-20T00:47:45;100348.91;;;7.44;100.00
41264;BME280;26998;48.714;9.414;2023-02-20T00:50:13;100363.91;;;7.45;100.00
41264;BME280;26998;48.714;9.414;2023-02-20T00:52:42;100356.75;;;7.46;100.00
41264;BME280;26998;48.714;9.414;2023-02-20T00:55:09;100360.25;;;7.46;100.00
41264;BME280;26998;48.714;9.414;2023-02-20T00:57:36;100347.38;;;7.42;100.00
41264;BME280;26998;48.714;9.414;2023-02-20T01:00:04;100345.97;;;7.37;100.00
41264;BME280;26998;48.714;9.414;2023-02-20T01:02:31;100352.97;;;7.38;100.00
41264;BME280;26998;48.714;9.414;2023-02-20T01:04:57;100343.47;;;7.36;100.00
41264;BME280;26998;48.714;9.414;2023-02-20T01:07:24;100346.25;;;7.34;100.00
41264;BME280;26998;48.714;9.414;2023-02-20T01:09:50;100352.28;;;7.36;100.00
41264;BME280;26998;48.714;9.414;2023-02-20T01:12:17;100332.38;;;7.40;100.00
41264;BME280;26998;48.714;9.414;2023-02-20T01:14:44;100328.31;;;7.46;100.00
41264;BME280;26998;48.714;9.414;2023-02-20T01:17:11;100332.09;;;7.44;100.00
41264;BME280;26998;48.714;9.414;2023-02-20T01:19:38;100328.59;;;7.43;100.00
41264;BME280;26998;48.714;9.414;2023-02-20T01:22:04;100315.03;;;7.46;100.00
41264;BME280;26998;48.714;9.414;2023-02-20T01:24:31;100296.28;;;7.48;100.00
41264;BME280;26998;48.714;9.414;2023-02-20T01:26:57;100283.09;;;7.46;100.00
41264;BME280;26998;48.714;9.414;2023-02-20T01:29:24;100278.22;;;7.42;100.00
41264;BME280;26998;48.714;9.414;2023-02-20T01:31:51;100281.72;;;7.42;100.00
41264;BME280;26998;48.714;9.414;2023-02-20T01:34:19;100282.97;;;7.38;100.00
41264;BME280;26998;48.714;9.414;2023-02-20T01:36:51;100279.75;;;7.34;100.00
41264;BME280;26998;48.714;9.414;2023-02-20T01:39:23;100281.03;;;7.30;100.00
41264;BME280;26998;48.714;9.414;2023-02-20T01:41:53;100282.16;;;7.28;100.00
41264;BME280;26998;48.714;9.414;2023-02-20T01:44:24;100282.03;;;7.20;100.00
41264;BME280;26998;48.714;9.414;2023-02-20T01:46:56;100295.47;;;7.08;100.00
41264;BME280;26998;48.714;9.414;2023-02-20T01:49:27;100305.38;;;7.06;100.00
41264;BME280;26998;48.714;9.414;2023-02-20T01:52:01;100299.50;;;7.12;100.00
41264;BME280;26998;48.714;9.414;2023-02-20T01:54:28;100297.41;;;7.06;100.00
41264;BME280;26998;48.714;9.414;2023-02-20T01:56:57;100310.84;;;7.05;100.00
41264;BME280;26998;48.714;9.414;2023-02-20T01:59:29;100311.13;;;7.02;100.00
41264;BME280;26998;48.714;9.414;2023-02-20T02:01:57;100323.72;;;7.00;100.00
41264;BME280;26998;48.714;9.414;2023-02-20T02:04:24;100304.13;;;7.01;100.00
41264;BME280;26998;48.714;9.414;2023-02-20T02:06:52;100271.69;;;7.16;100.00
41264;BME280;26998;48.714;9.414;2023-02-20T02:09:31;100242.97;;;7.20;100.00
41264;BME280;26998;48.714;9.414;2023-02-20T02:11:59;100227.59;;;7.14;100.00
41264;BME280;26998;48.714;9.414;2023-02-20T02:14:26;100221.44;;;7.13;100.00
41264;BME280;26998;48.714;9.414;2023-02-20T02:16:59;100224.38;;;7.10;100.00
41264;BME280;26998;48.714;9.414;2023-02-20T02:36:27;100193.00;;;7.24;100.00
41264;BME280;26998;48.714;9.414;2023-02-20T02:44:50;100214.97;;;7.26;100.00
41264;BME280;26998;48.714;9.414;2023-02-20T02:48:04;100213.16;;;7.26;100.00
41264;BME280;26998;48.714;9.414;2023-02-20T02:50:36;100214.97;;;7.26;100.00
41264;BME280;26998;48.714;9.414;2023-02-20T02:53:07;100214.41;;;7.22;100.00
41264;BME280;26998;48.714;9.414;2023-02-20T02:55:35;100235.28;;;7.17;100.00
41264;BME280;26998;48.714;9.414;2023-02-20T02:58:03;100227.16;;;7.18;100.00
41264;BME280;26998;48.714;9.414;2023-02-20T03:00:43;100230.94;;;7.16;100.00
41264;BME280;26998;48.714;9.414;2023-02-20T03:05:51;100226.75;;;7.13;100.00
41264;BME280;26998;48.714;9.414;2023-02-20T03:08:43;100227.16;;;7.18;100.00
41264;BME280;26998;48.714;9.414;2023-02-20T03:11:13;100226.75;;;7.13;100.00
41264;BME280;26998;48.714;9.414;2023-02-20T03:13:48;100229.44;;;7.13;100.00
41264;BME280;26998;48.714;9.414;2023-02-20T03:16:20;100233.50;;;7.08;100.00
41264;BME280;26998;48.714;9.414;2023-02-20T03:18:49;100243.41;;;7.06;100.00
41264;BME280;26998;48.714;9.414;2023-02-20T03:21:20;100240.03;;;7.04;100.00
41264;BME280;26998;48.714;9.414;2023-02-20T03:23:56;100239.50;;;7.00;100.00
41264;BME280;26998;48.714;9.414;2023-02-20T03:26:32;100244.41;;;6.95;100.00
41264;BME280;26998;48.714;9.414;2023-02-20T03:29:21;100253.06;;;6.87;100.00
41264;BME280;26998;48.714;9.414;2023-02-20T03:31:53;100257.28;;;6.80;100.00
41264;BME280;26998;48.714;9.414;2023-02-20T03:34:25;100259.38;;;6.86;100.00
41264;BME280;26998;48.714;9.414;2023-02-20T03:36:56;100258.66;;;6.84;100.00
41264;BME280;26998;48.714;9.414;2023-02-20T03:39:29;100261.03;;;6.87;100.00
41264;BME280;26998;48.714;9.414;2023-02-20T03:41:58;100264.81;;;6.85;100.00
41264;BME280;26998;48.714;9.414;2023-02-20T03:44:27;100269.16;;;6.86;100.00
41264;BME280;26998;48.714;9.414;2023-02-20T03:46:58;100270.00;;;6.86;100.00
41264;BME280;26998;48.714;9.414;2023-02-20T03:49:36;100281.63;;;6.85;100.00
41264;BME280;26998;48.714;9.414;2023-02-20T03:52:04;100282.72;;;6.83;100.00
41264;BME280;26998;48.714;9.414;2023-02-20T03:54:32;100302.16;;;6.83;100.00
41264;BME280;26998;48.714;9.414;2023-02-20T03:57:03;100284.13;;;6.87;100.00
41264;BME280;26998;48.714;9.414;2023-02-20T03:59:57;100281.47;;;6.87;100.00
41264;BME280;26998;48.714;9.414;2023-02-20T04:02:32;100269.00;;;6.87;100.00
41264;BME280;26998;48.714;9.414;2023-02-20T04:05:02;100271.94;;;6.84;100.00
41264;BME280;26998;48.714;9.414;2023-02-20T04:07:43;100271.94;;;6.84;100.00
41264;BME280;26998;48.714;9.414;2023-02-20T04:10:14;100274.75;;;6.83;100.00
41264;BME280;26998;48.714;9.414;2023-02-20T04:12:44;100277.25;;;6.84;100.00
41264;BME280;26998;48.714;9.414;2023-02-20T04:15:12;100257.00;;;6.83;100.00
41264;BME280;26998;48.714;9.414;2023-02-20T04:17:49;100253.91;;;6.78;100.00
41264;BME280;26998;48.714;9.414;2023-02-20T04:20:17;100264.13;;;6.73;100.00
41264;BME280;26998;48.714;9.414;2023-02-20T04:22:46;100253.78;;;6.70;100.00
41264;BME280;26998;48.714;9.414;2023-02-20T04:25:27;100261.44;;;6.63;100.00
41264;BME280;26998;48.714;9.414;2023-02-20T04:27:56;100263.81;;;6.57;100.00
41264;BME280;26998;48.714;9.414;2023-02-20T04:30:23;100273.19;;;6.51;100.00
41264;BME280;26998;48.714;9.414;2023-02-20T04:32:49;100279.44;;;6.40;100.00
41264;BME280;26998;48.714;9.414;2023-02-20T04:35:17;100285.84;;;6.28;100.00
41264;BME280;26998;48.714;9.414;2023-02-20T04:37:48;100304.28;;;6.20;100.00
41264;BME280;26998;48.714;9.414;2023-02-20T04:40:18;100314.00;;;6.10;100.00
41264;BME280;26998;48.714;9.414;2023-02-20T04:42:45;100328.22;;;5.99;100.00
41264;BME280;26998;48.714;9.414;2023-02-20T04:45:11;100343.03;;;6.01;100.00
41264;BME280;26998;48.714;9.414;2023-02-20T04:47:38;100346.63;;;6.00;100.00
41264;BME280;26998;48.714;9.414;2023-02-20T04:50:05;100343.97;;;6.00;100.00
41264;BME280;26998;48.714;9.414;2023-02-20T04:52:31;100345.56;;;5.92;100.00
41264;BME280;26998;48.714;9.414;2023-02-20T04:54:58;100340.47;;;5.79;100.00
41264;BME280;26998;48.714;9.414;2023-02-20T04:57:24;100361.28;;;5.74;100.00
41264;BME280;26998;48.714;9.414;2023-02-20T04:59:51;100367.94;;;5.68;100.00
41264;BME280;26998;48.714;9.414;2023-02-20T05:02:18;100375.91;;;5.68;100.00
41264;BME280;26998;48.714;9.414;2023-02-20T05:04:45;100383.59;;;5.71;100.00
41264;BME280;26998;48.714;9.414;2023-02-20T05:07:12;100381.66;;;5.73;100.00
41264;BME280;26998;48.714;9.414;2023-02-20T05:09:42;100375.13;;;5.77;100.00
41264;BME280;26998;48.714;9.414;2023-02-20T05:12:08;100367.94;;;5.68;100.00
41264;BME280;26998;48.714;9.414;2023-02-20T05:14:35;100380.66;;;5.53;100.00
41264;BME280;26998;48.714;9.414;2023-02-20T05:17:01;100377.63;;;5.37;100.00
41264;BME280;26998;48.714;9.414;2023-02-20T05:19:28;100393.31;;;5.29;100.00
41264;BME280;26998;48.714;9.414;2023-02-20T05:21:54;100414.19;;;5.22;100.00
41264;BME280;26998;48.714;9.414;2023-02-20T05:24:21;100441.06;;;5.18;100.00
41264;BME280;26998;48.714;9.414;2023-02-20T05:26:48;100451.19;;;5.13;100.00
41264;BME280;26998;48.714;9.414;2023-02-20T05:29:14;100465.28;;;5.13;100.00
41264;BME280;26998;48.714;9.414;2023-02-20T05:31:41;100464.44;;;5.01;100.00
41264;BME280;26998;48.714;9.414;2023-02-20T05:34:08;100470.63;;;5.02;100.00
41264;BME280;26998;48.714;9.414;2023-02-20T05:36:35;100474.34;;;4.99;100.00
41264;BME280;26998;48.714;9.414;2023-02-20T05:39:02;100483.88;;;4.91;100.00
41264;BME280;26998;48.714;9.414;2023-02-20T05:41:29;100493.28;;;4.83;100.00
41264;BME280;26998;48.714;9.414;2023-02-20T05:43:56;100488.94;;;4.71;100.00
41264;BME280;26998;48.714;9.414;2023-02-20T05:46:24;100503.84;;;4.61;100.00
41264;BME280;26998;48.714;9.414;2023-02-20T05:48:52;100552.72;;;4.57;100.00
41264;BME280;26998;48.714;9.414;2023-02-20T05:53:46;100590.63;;;4.46;100.00
41264;BME280;26998;48.714;9.414;2023-02-20T05:56:13;100592.28;;;4.47;100.00
41264;BME280;26998;48.714;9.414;2023-02-20T05:58:43;100608.41;;;4.44;100.00
41264;BME280;26998;48.714;9.414;2023-02-20T06:03:43;100620.91;;;4.42;100.00
41264;BME280;26998;48.714;9.414;2023-02-20T06:06:10;100623.19;;;4.35;100.00
41264;BME280;26998;48.714;9.414;2023-02-20T06:08:39;100606.81;;;4.30;100.00
41264;BME280;26998;48.714;9.414;2023-02-20T06:11:06;100609.09;;;4.24;100.00
41264;BME280;26998;48.714;9.414;2023-02-20T06:13:34;100615.75;;;4.16;100.00
41264;BME280;26998;48.714;9.414;2023-02-20T06:16:04;100611.75;;;4.11;100.00
41264;BME280;26998;48.714;9.414;2023-02-20T06:18:31;100625.13;;;4.09;100.00
41264;BME280;26998;48.714;9.414;2023-02-20T06:20:57;100633.28;;;4.06;100.00
41264;BME280;26998;48.714;9.414;2023-02-20T06:23:25;100650.75;;;4.09;100.00
41264;BME280;26998;48.714;9.414;2023-02-20T06:25:51;100658.22;;;4.15;100.00
41264;BME280;26998;48.714;9.414;2023-02-20T06:28:18;100668.69;;;4.16;100.00
41264;BME280;26998;48.714;9.414;2023-02-20T06:30:44;100669.66;;;4.15;100.00
41264;BME280;26998;48.714;9.414;2023-02-20T06:33:11;100676.00;;;4.13;100.00
41264;BME280;26998;48.714;9.414;2023-02-20T06:35:37;100648.78;;;4.00;100.00
41264;BME280;26998;48.714;9.414;2023-02-20T06:38:04;100658.50;;;3.99;100.00
41264;BME280;26998;48.714;9.414;2023-02-20T06:40:30;100676.16;;;3.99;100.00
41264;BME280;26998;48.714;9.414;2023-02-20T06:42:57;100676.16;;;3.99;100.00
41264;BME280;26998;48.714;9.414;2023-02-20T06:45:24;100682.19;;;4.01;100.00
41264;BME280;26998;48.714;9.414;2023-02-20T06:47:50;100683.03;;;4.01;100.00
41264;BME280;26998;48.714;9.414;2023-02-20T06:50:17;100667.38;;;3.98;100.00
41264;BME280;26998;48.714;9.414;2023-02-20T06:52:43;100658.00;;;3.94;100.00
41264;BME280;26998;48.714;9.414;2023-02-20T06:55:10;100663.16;;;3.96;100.00
41264;BME280;26998;48.714;9.414;2023-02-20T06:57:37;100669.28;;;4.09;100.00
41264;BME280;26998;48.714;9.414;2023-02-20T07:00:04;100675.56;;;4.19;100.00
41264;BME280;26998;48.714;9.414;2023-02-20T07:02:31;100646.81;;;4.14;100.00
41264;BME280;26998;48.714;9.414;2023-02-20T07:04:58;100643.94;;;4.18;100.00
41264;BME280;26998;48.714;9.414;2023-02-20T07:07:24;100649.88;;;4.32;100.00
41264;BME280;26998;48.714;9.414;2023-02-20T07:09:51;100639.22;;;4.45;100.00
41264;BME280;26998;48.714;9.414;2023-02-20T07:12:17;100606.88;;;4.53;100.00
41264;BME280;26998;48.714;9.414;2023-02-20T07:14:44;100601.75;;;4.74;100.00
41264;BME280;26998;48.714;9.414;2023-02-20T07:17:11;100559.47;;;4.72;100.00
41264;BME280;26998;48.714;9.414;2023-02-20T07:19:39;100538.44;;;4.71;100.00
41264;BME280;26998;48.714;9.414;2023-02-20T07:22:05;100557.06;;;4.69;100.00
41264;BME280;26998;48.714;9.414;2023-02-20T07:24:32;100577.34;;;4.93;100.00
41264;BME280;26998;48.714;9.414;2023-02-20T07:27:00;100569.72;;;5.10;100.00
41264;BME280;26998;48.714;9.414;2023-02-20T07:29:28;100532.53;;;5.12;100.00
41264;BME280;26998;48.714;9.414;2023-02-20T07:31:55;100533.31;;;5.35;100.00
41264;BME280;26998;48.714;9.414;2023-02-20T07:34:22;100500.91;;;5.43;100.00
41264;BME280;26998;48.714;9.414;2023-02-20T07:36:48;100474.97;;;5.46;100.00
41264;BME280;26998;48.714;9.414;2023-02-20T07:39:15;100466.91;;;5.69;100.00
41264;BME280;26998;48.714;9.414;2023-02-20T07:41:41;100433.09;;;5.82;100.00
41264;BME280;26998;48.714;9.414;2023-02-20T07:44:09;100410.91;;;6.04;100.00
41264;BME280;26998;48.714;9.414;2023-02-20T07:46:35;100368.41;;;6.25;100.00
41264;BME280;26998;48.714;9.414;2023-02-20T07:49:03;100311.59;;;6.37;100.00
41264;BME280;26998;48.714;9.414;2023-02-20T07:51:31;100281.72;;;6.55;100.00
41264;BME280;26998;48.714;9.414;2023-02-20T07:53:58;100243.44;;;6.67;100.00
41264;BME280;26998;48.714;9.414;2023-02-20T07:56:25;100225.78;;;6.56;100.00
41264;BME280;26998;48.714;9.414;2023-02-20T07:58:51;100242.16;;;6.61;100.00
41264;BME280;26998;48.714;9.414;2023-02-20T08:01:18;100234.47;;;6.48;100.00
41264;BME280;26998;48.714;9.414;2023-02-20T08:03:45;100219.63;;;6.75;100.00
41264;BME280;26998;48.714;9.414;2023-02-20T08:06:12;100203.41;;;7.07;100.00
41264;BME280;26998;48.714;9.414;2023-02-20T08:08:39;100165.72;;;7.22;100.00
41264;BME280;26998;48.714;9.414;2023-02-20T08:11:09;100134.25;;;7.17;100.00
41264;BME280;26998;48.714;9.414;2023-02-20T08:13:51;100094.47;;;7.53;100.00
41264;BME280;26998;48.714;9.414;2023-02-20T08:16:18;100083.06;;;7.70;100.00
41264;BME280;26998;48.714;9.414;2023-02-20T08:18:45;100072.88;;;7.83;100.00
41264;BME280;26998;48.714;9.414;2023-02-20T08:21:11;100067.97;;;7.61;100.00
41264;BME280;26998;48.714;9.414;2023-02-20T08:23:38;100062.44;;;7.72;100.00
41264;BME280;26998;48.714;9.414;2023-02-20T08:26:05;100058.44;;;7.86;100.00
41264;BME280;26998;48.714;9.414;2023-02-20T08:28:31;100053.44;;;8.01;100.00
41264;BME280;26998;48.714;9.414;2023-02-20T08:30:58;100018.63;;;8.20;100.00
41264;BME280;26998;48.714;9.414;2023-02-20T08:33:24;99994.56;;;8.48;100.00
41264;BME280;26998;48.714;9.414;2023-02-20T08:35:51;99986.81;;;8.89;100.00
41264;BME280;26998;48.714;9.414;2023-02-20T08:38:24;99937.06;;;9.14;100.00
41264;BME280;26998;48.714;9.414;2023-02-20T08:40:51;99915.09;;;9.28;100.00
41264;BME280;26998;48.714;9.414;2023-02-20T08:43:20;99895.63;;;9.68;100.00
41264;BME280;26998;48.714;9.414;2023-02-20T08:45:47;99874.59;;;9.74;100.00
41264;BME280;26998;48.714;9.414;2023-02-20T08:48:14;99873.59;;;9.50;100.00
41264;BME280;26998;48.714;9.414;2023-02-20T08:50:40;99857.59;;;9.58;100.00
41264;BME280;26998;48.714;9.414;2023-02-20T08:53:07;99845.59;;;9.54;100.00
41264;BME280;26998;48.714;9.414;2023-02-20T08:55:34;99841.91;;;9.80;100.00
41264;BME280;26998;48.714;9.414;2023-02-20T08:58:00;99833.25;;;9.69;100.00
41264;BME280;26998;48.714;9.414;2023-02-20T09:00:27;99838.88;;;9.83;100.00
41264;BME280;26998;48.714;9.414;2023-02-20T09:02:54;99827.00;;;10.10;100.00
41264;BME280;26998;48.714;9.414;2023-02-20T09:05:21;99823.50;;;10.09;100.00
41264;BME280;26998;48.714;9.414;2023-02-20T09:07:47;99825.44;;;10.24;100.00
41264;BME280;26998;48.714;9.414;2023-02-20T09:10:19;99818.38;;;10.78;100.00
41264;BME280;26998;48.714;9.414;2023-02-20T09:12:48;99820.13;;;10.63;100.00
41264;BME280;26998;48.714;9.414;2023-02-20T09:15:14;99817.34;;;10.56;100.00
41264;BME280;26998;48.714;9.414;2023-02-20T09:17:41;99813.09;;;10.62;100.00
41264;BME280;26998;48.714;9.414;2023-02-20T09:20:08;99813.25;;;10.69;100.00
41264;BME280;26998;48.714;9.414;2023-02-20T09:22:34;99807.50;;;10.49;100.00
41264;BME280;26998;48.714;9.414;2023-02-20T09:25:01;99801.66;;;11.07;100.00
41264;BME280;26998;48.714;9.414;2023-02-20T09:27:28;99792.94;;;11.05;100.00
41264;BME280;26998;48.714;9.414;2023-02-20T09:29:54;99796.88;;;11.41;100.00
41264;BME280;26998;48.714;9.414;2023-02-20T09:32:21;99789.59;;;11.49;100.00
41264;BME280;26998;48.714;9.414;2023-02-20T09:34:48;99786.19;;;11.18;100.00
41264;BME280;26998;48.714;9.414;2023-02-20T09:37:14;99787.78;;;11.65;100.00
41264;BME280;26998;48.714;9.414;2023-02-20T09:39:41;99784.31;;;11.79;100.00
41264;BME280;26998;48.714;9.414;2023-02-20T09:45:19;99774.91;;;11.98;100.00
41264;BME280;26998;48.714;9.414;2023-02-20T09:50:44;99767.88;;;12.41;98.77
41264;BME280;26998;48.714;9.414;2023-02-20T09:53:32;99772.09;;;12.51;96.68
41264;BME280;26998;48.714;9.414;2023-02-20T09:56:02;99769.44;;;12.87;95.23
41264;BME280;26998;48.714;9.414;2023-02-20T10:01:19;99763.22;;;12.86;91.24
41264;BME280;26998;48.714;9.414;2023-02-20T10:06:24;99752.09;;;12.89;89.16
41264;BME280;26998;48.714;9.414;2023-02-20T10:08:50;99748.34;;;12.84;89.67
41264;BME280;26998;48.714;9.414;2023-02-20T10:11:37;99755.03;;;12.94;91.85
41264;BME280;26998;48.714;9.414;2023-02-20T10:17:33;99743.81;;;12.84;89.59
41264;BME280;26998;48.714;9.414;2023-02-20T10:20:24;99742.19;;;12.68;91.20
41264;BME280;26998;48.714;9.414;2023-02-20T10:25:57;99736.72;;;12.40;93.17
41264;BME280;26998;48.714;9.414;2023-02-20T10:28:25;99737.69;;;12.90;90.45
41264;BME280;26998;48.714;9.414;2023-02-20T10:30:59;99737.13;;;12.22;89.79
41264;BME280;26998;48.714;9.414;2023-02-20T10:33:39;99732.69;;;12.66;89.09
41264;BME280;26998;48.714;9.414;2023-02-20T10:36:20;99741.13;;;12.84;86.08
41264;BME280;26998;48.714;9.414;2023-02-20T10:39:00;99730.38;;;12.63;86.52
41264;BME280;26998;48.714;9.414;2023-02-20T10:41:53;99734.06;;;12.83;89.86
41264;BME280;26998;48.714;9.414;2023-02-20T10:44:39;99732.16;;;12.56;89.75
41264;BME280;26998;48.714;9.414;2023-02-20T10:50:04;99729.91;;;12.23;91.06
41264;BME280;26998;48.714;9.414;2023-02-20T10:52:42;99721.63;;;12.97;88.94
41264;BME280;26998;48.714;9.414;2023-02-20T10:55:23;99720.53;;;13.13;83.39
41264;BME280;26998;48.714;9.414;2023-02-20T10:58:05;99719.78;;;12.98;83.84
41264;BME280;26998;48.714;9.414;2023-02-20T11:00:40;99718.34;;;13.23;83.01
41264;BME280;26998;48.714;9.414;2023-02-20T11:03:14;99711.16;;;13.52;81.81
41264;BME280;26998;48.714;9.414;2023-02-20T11:05:50;99712.56;;;13.48;82.56
41264;BME280;26998;48.714;9.414;2023-02-20T11:08:17;99717.41;;;13.31;82.80
41264;BME280;26998;48.714;9.414;2023-02-20T11:10:43;99712.88;;;13.31;80.97
41264;BME280;26998;48.714;9.414;2023-02-20T11:13:14;99707.41;;;13.46;80.52
41264;BME280;26998;48.714;9.414;2023-02-20T11:15:43;99706.28;;;14.03;76.94
41264;BME280;26998;48.714;9.414;2023-02-20T11:18:20;99691.66;;;14.13;75.37
41264;BME280;26998;48.714;9.414;2023-02-20T11:20:49;99695.00;;;14.21;75.35
41264;BME280;26998;48.714;9.414;2023-02-20T11:28:42;99692.88;;;14.10;78.06
41264;BME280;26998;48.714;9.414;2023-02-20T11:31:09;99690.38;;;14.57;76.31
41264;BME280;26998;48.714;9.414;2023-02-20T11:33:43;99681.50;;;14.83;69.30
41264;BME280;26998;48.714;9.414;2023-02-20T11:36:14;99688.78;;;14.95;67.51
41264;BME280;26998;48.714;9.414;2023-02-20T11:38:46;99686.69;;;14.84;66.43
41264;BME280;26998;48.714;9.414;2023-02-20T11:41:23;99676.34;;;14.94;68.03
41264;BME280;26998;48.714;9.414;2023-02-20T11:44:24;99680.91;;;14.81;65.65
41264;BME280;26998;48.714;9.414;2023-02-20T11:47:23;99684.66;;;14.86;60.87
41264;BME280;26998;48.714;9.414;2023-02-20T11:50:09;99676.34;;;15.01;60.58
41264;BME280;26998;48.714;9.414;2023-02-20T11:52:59;99664.97;;;14.92;61.95
41264;BME280;26998;48.714;9.414;2023-02-20T11:55:27;99671.56;;;14.63;63.69
41264;BME280;26998;48.714;9.414;2023-02-20T11:57:55;99666.16;;;14.57;64.41
41264;BME280;26998;48.714;9.414;2023-02-20T12:00:28;99660.09;;;14.35;66.84
41264;BME280;26998;48.714;9.414;2023-02-20T12:03:03;99653.59;;;14.90;64.22
41264;BME280;26998;48.714;9.414;2023-02-20T12:05:41;99640.34;;;15.02;65.22
41264;BME280;26998;48.714;9.414;2023-02-20T12:11:04;99627.28;;;15.12;61.02
41264;BME280;26998;48.714;9.414;2023-02-20T12:13:45;99629.34;;;15.04;60.02
41264;BME280;26998;48.714;9.414;2023-02-20T12:16:37;99615.69;;;15.18;63.24
41264;BME280;26998;48.714;9.414;2023-02-20T12:19:20;99631.31;;;14.35;64.93
41264;BME280;26998;48.714;9.414;2023-02-20T12:22:03;99604.72;;;15.00;64.40
41264;BME280;26998;48.714;9.414;2023-02-20T12:24:54;99607.84;;;14.77;65.21
41264;BME280;26998;48.714;9.414;2023-02-20T12:27:46;99600.31;;;15.25;66.65
41264;BME280;26998;48.714;9.414;2023-02-20T12:30:48;99591.25;;;15.07;61.19
41264;BME280;26998;48.714;9.414;2023-02-20T12:37:04;99582.47;;;15.44;56.62
41264;BME280;26998;48.714;9.414;2023-02-20T12:42:54;99569.13;;;15.63;58.82
41264;BME280;26998;48.714;9.414;2023-02-20T12:47:59;99555.16;;;15.34;58.75
41264;BME280;26998;48.714;9.414;2023-02-20T12:50:40;99555.31;;;15.98;58.40
41264;BME280;26998;48.714;9.414;2023-02-20T12:53:15;99544.59;;;15.84;56.42
41264;BME280;26998;48.714;9.414;2023-02-20T12:55:53;99546.63;;;15.96;57.16
41264;BME280;26998;48.714;9.414;2023-02-20T13:01:12;99531.47;;;16.01;58.05
41264;BME280;26998;48.714;9.414;2023-02-20T13:04:05;99527.84;;;16.14;54.19
41264;BME280;26998;48.714;9.414;2023-02-20T13:06:39;99527.75;;;16.27;53.59
41264;BME280;26998;48.714;9.414;2023-02-20T13:11:44;99522.56;;;15.94;54.26
41264;BME280;26998;48.714;9.414;2023-02-20T13:17:01;99509.38;;;16.17;52.29
41264;BME280;26998;48.714;9.414;2023-02-20T13:22:00;99505.06;;;16.60;53.68
41264;BME280;26998;48.714;9.414;2023-02-20T13:24:29;99499.28;;;16.56;54.74
41264;BME280;26998;48.714;9.414;2023-02-20T13:27:01;99490.75;;;16.34;54.30
41264;BME280;26998;48.714;9.414;2023-02-20T13:29:28;99483.91;;;16.57;53.87
41264;BME280;26998;48.714;9.414;2023-02-20T13:31:57;99492.56;;;16.15;52.84
41264;BME280;26998;48.714;9.414;2023-02-20T13:34:36;99471.28;;;16.32;53.82
41264;BME280;26998;48.714;9.414;2023-02-20T13:37:48;99471.06;;;16.34;53.19
41264;BME280;26998;48.714;9.414;2023-02-20T13:45:42;99429.59;;;16.28;53.94
41264;BME280;26998;48.714;9.414;2023-02-20T13:53:57;99419.06;;;15.63;57.90
41264;BME280;26998;48.714;9.414;2023-02-20T13:59:09;99416.56;;;16.25;50.68
41264;BME280;26998;48.714;9.414;2023-02-20T14:01:57;99408.34;;;16.13;51.67
41264;BME280;26998;48.714;9.414;2023-02-20T14:04:30;99419.38;;;16.37;53.49
41264;BME280;26998;48.714;9.414;2023-02-20T14:06:57;99419.88;;;16.71;52.26
41264;BME280;26998;48.714;9.414;2023-02-20T14:09:27;99417.06;;;16.59;51.01
41264;BME280;26998;48.714;9.414;2023-02-20T14:12:03;99405.38;;;16.65;49.87
41264;BME280;26998;48.714;9.414;2023-02-20T14:14:34;99388.41;;;16.83;48.80
41264;BME280;26998;48.714;9.414;2023-02-20T14:17:05;99392.00;;;16.95;48.95
41264;BME280;26998;48.714;9.414;2023-02-20T14:19:32;99398.13;;;16.66;45.12
41264;BME280;26998;48.714;9.414;2023-02-20T14:24:44;99400.69;;;16.60;43.80
41264;BME280;26998;48.714;9.414;2023-02-20T14:27:25;99402.53;;;16.16;49.07
41264;BME280;26998;48.714;9.414;2023-02-20T14:30:07;99389.81;;;16.24;50.57
41264;BME280;26998;48.714;9.414;2023-02-20T14:32:35;99386.47;;;16.03;51.34
41264;BME280;26998;48.714;9.414;2023-02-20T14:38:10;99395.38;;;16.29;51.83
41264;BME280;26998;48.714;9.414;2023-02-20T14:40:43;99389.72;;;16.12;50.20
41264;BME280;26998;48.714;9.414;2023-02-20T14:43:16;99376.13;;;16.00;50.52
41264;BME280;26998;48.714;9.414;2023-02-20T14:45:45;99368.34;;;16.10;51.02
41264;BME280;26998;48.714;9.414;2023-02-20T14:48:27;99372.53;;;16.50;50.14
41264;BME280;26998;48.714;9.414;2023-02-20T14:53:40;99370.41;;;15.90;50.59